sensor_id;sensor_type;location;lat;lon;timestamp;P1;durP1;ratioP1;P2;durP2;ratioP2
1811;SDS011;904;47.814;11.134;2023-02-24T00:01:59;12.20;;;6.13;;
1811;SDS011;904;47.814;11.134;2023-02-24T00:04:30;11.38;;;6.03;;
1811;SDS011;904;47.814;11.134;2023-02-24T00:06:59;9.55;;;6.15;;
1811;SDS011;904;47.814;11.134;2023-02-24T00:09:30;12.00;;;5.70;;
1811;SDS011;904;47.814;11.134;2023-02-24T00:11:59;9.93;;;6.10;;
1811;SDS011;904;47.814;11.134;2023-02-24T00:14:28;11.95;;;6.93;;
1811;SDS011;904;47.814;11.134;2023-02-24T00:16:58;10.13;;;5.80;;
1811;SDS011;904;47.814;11.134;2023-02-24T00:19:26;10.45;;;5.95;;
1811;SDS011;904;47.814;11.134;2023-02-24T00:21:56;10.07;;;5.25;;
1811;SDS011;904;47.814;11.134;2023-02-24T00:24:24;11.00;;;6.05;;
1811;SDS011;904;47.814;11.134;2023-02-24T00:26:54;8.73;;;5.07;;
1811;SDS011;904;47.814;11.134;2023-02-24T00:29:25;10.25;;;5.15;;
1811;SDS011;904;47.814;11.134;2023-02-24T00:31:53;9.30;;;5.43;;
1811;SDS011;904;47.814;11.134;2023-02-24T00:34:24;8.13;;;5.20;;
1811;SDS011;904;47.814;11.134;2023-02-24T00:36:51;12.85;;;5.93;;
1811;SDS011;904;47.814;11.134;2023-02-24T00:39:18;9.85;;;5.00;;
1811;SDS011;904;47.814;11.134;2023-02-24T00:41:55;7.22;;;4.30;;
1811;SDS011;904;47.814;11.134;2023-02-24T00:44:28;11.63;;;5.53;;
1811;SDS011;904;47.814;11.134;2023-02-24T00:46:58;9.00;;;5.40;;
1811;SDS011;904;47.814;11.134;2023-02-24T00:49:27;7.65;;;5.78;;
1811;SDS011;904;47.814;11.134;2023-02-24T00:51:55;7.97;;;5.25;;
1811;SDS011;904;47.814;11.134;2023-02-24T00:54:22;10.27;;;6.40;;
1811;SDS011;904;47.814;11.134;2023-02-24T00:56:54;8.35;;;5.60;;
1811;SDS011;904;47.814;11.134;2023-02-24T00:59:21;10.65;;;6.20;;
1811;SDS011;904;47.814;11.134;2023-02-24T01:01:49;10.60;;;4.75;;
1811;SDS011;904;47.814;11.134;2023-02-24T01:04:19;7.45;;;5.47;;
1811;SDS011;904;47.814;11.134;2023-02-24T01:06:47;7.88;;;5.15;;
1811;SDS011;904;47.814;11.134;2023-02-24T01:09:17;7.22;;;5.25;;
1811;SDS011;904;47.814;11.134;2023-02-24T01:11:46;8.50;;;5.15;;
1811;SDS011;904;47.814;11.134;2023-02-24T01:14:34;8.45;;;5.43;;
1811;SDS011;904;47.814;11.134;2023-02-24T01:17:04;10.98;;;5.55;;
1811;SDS011;904;47.814;11.134;2023-02-24T01:19:33;9.93;;;4.80;;
1811;SDS011;904;47.814;11.134;2023-02-24T01:22:02;8.30;;;4.88;;
1811;SDS011;904;47.814;11.134;2023-02-24T01:24:32;9.25;;;5.05;;
1811;SDS011;904;47.814;11.134;2023-02-24T01:27:02;6.88;;;5.28;;
1811;SDS011;904;47.814;11.134;2023-02-24T01:29:30;7.50;;;4.80;;
1811;SDS011;904;47.814;11.134;2023-02-24T01:31:58;8.85;;;5.57;;
1811;SDS011;904;47.814;11.134;2023-02-24T01:34:26;9.23;;;4.60;;
1811;SDS011;904;47.814;11.134;2023-02-24T01:36:54;7.90;;;4.53;;
1811;SDS011;904;47.814;11.134;2023-02-24T01:39:21;7.47;;;4.75;;
1811;SDS011;904;47.814;11.134;2023-02-24T01:41:50;8.07;;;5.38;;
1811;SDS011;904;47.814;11.134;2023-02-24T01:47:23;9.90;;;5.85;;
1811;SDS011;904;47.814;11.134;2023-02-24T01:49:55;10.00;;;5.03;;
1811;SDS011;904;47.814;11.134;2023-02-24T01:52:23;6.85;;;4.80;;
1811;SDS011;904;47.814;11.134;2023-02-24T01:54:55;6.32;;;5.00;;
1811;SDS011;904;47.814;11.134;2023-02-24T01:57:28;9.60;;;5.43;;
1811;SDS011;904;47.814;11.134;2023-02-24T01:59:58;11.70;;;5.00;;
1811;SDS011;904;47.814;11.134;2023-02-24T02:02:38;9.35;;;4.88;;
1811;SDS011;904;47.814;11.134;2023-02-24T02:05:10;7.00;;;4.97;;
1811;SDS011;904;47.814;11.134;2023-02-24T02:07:38;7.43;;;5.18;;
1811;SDS011;904;47.814;11.134;2023-02-24T02:10:08;9.55;;;5.63;;
1811;SDS011;904;47.814;11.134;2023-02-24T02:12:37;10.82;;;4.97;;
1811;SDS011;904;47.814;11.134;2023-02-24T02:15:09;10.93;;;5.82;;
1811;SDS011;904;47.814;11.134;2023-02-24T02:17:41;7.97;;;5.18;;
1811;SDS011;904;47.814;11.134;2023-02-24T02:26:16;10.40;;;5.88;;
1811;SDS011;904;47.814;11.134;2023-02-24T02:29:07;11.23;;;5.13;;
1811;SDS011;904;47.814;11.134;2023-02-24T02:32:04;6.47;;;5.03;;
1811;SDS011;904;47.814;11.134;2023-02-24T02:34:46;7.10;;;4.40;;
1811;SDS011;904;47.814;11.134;2023-02-24T02:37:20;8.05;;;4.88;;
1811;SDS011;904;47.814;11.134;2023-02-24T02:39:57;11.35;;;5.68;;
1811;SDS011;904;47.814;11.134;2023-02-24T02:42:41;6.63;;;4.55;;
1811;SDS011;904;47.814;11.134;2023-02-24T02:45:12;10.85;;;5.95;;
1811;SDS011;904;47.814;11.134;2023-02-24T02:47:45;8.43;;;5.10;;
1811;SDS011;904;47.814;11.134;2023-02-24T02:50:20;10.82;;;4.80;;
1811;SDS011;904;47.814;11.134;2023-02-24T02:52:52;8.93;;;5.00;;
1811;SDS011;904;47.814;11.134;2023-02-24T02:55:25;9.25;;;5.20;;
1811;SDS011;904;47.814;11.134;2023-02-24T02:57:59;15.43;;;5.53;;
1811;SDS011;904;47.814;11.134;2023-02-24T03:00:30;14.32;;;7.07;;
1811;SDS011;904;47.814;11.134;2023-02-24T03:03:04;6.20;;;4.40;;
1811;SDS011;904;47.814;11.134;2023-02-24T03:05:38;7.57;;;5.22;;
1811;SDS011;904;47.814;11.134;2023-02-24T03:08:11;6.55;;;4.53;;
1811;SDS011;904;47.814;11.134;2023-02-24T03:10:44;11.43;;;4.95;;
1811;SDS011;904;47.814;11.134;2023-02-24T03:13:15;14.02;;;4.63;;
1811;SDS011;904;47.814;11.134;2023-02-24T03:15:45;6.43;;;4.05;;
1811;SDS011;904;47.814;11.134;2023-02-24T03:18:14;7.30;;;5.03;;
1811;SDS011;904;47.814;11.134;2023-02-24T03:20:47;9.27;;;5.82;;
1811;SDS011;904;47.814;11.134;2023-02-24T03:23:21;9.07;;;5.45;;
1811;SDS011;904;47.814;11.134;2023-02-24T03:25:52;8.50;;;4.82;;
1811;SDS011;904;47.814;11.134;2023-02-24T03:28:25;8.43;;;4.80;;
1811;SDS011;904;47.814;11.134;2023-02-24T03:30:59;6.63;;;4.47;;
1811;SDS011;904;47.814;11.134;2023-02-24T03:33:32;7.95;;;4.88;;
1811;SDS011;904;47.814;11.134;2023-02-24T03:36:04;9.02;;;5.32;;
1811;SDS011;904;47.814;11.134;2023-02-24T03:38:32;8.20;;;5.25;;
1811;SDS011;904;47.814;11.134;2023-02-24T03:41:02;8.43;;;4.68;;
1811;SDS011;904;47.814;11.134;2023-02-24T03:43:35;12.05;;;5.70;;
1811;SDS011;904;47.814;11.134;2023-02-24T03:46:06;9.70;;;4.45;;
1811;SDS011;904;47.814;11.134;2023-02-24T03:48:34;6.55;;;5.05;;
1811;SDS011;904;47.814;11.134;2023-02-24T03:51:12;6.00;;;3.97;;
1811;SDS011;904;47.814;11.134;2023-02-24T03:53:43;7.80;;;4.18;;
1811;SDS011;904;47.814;11.134;2023-02-24T03:56:20;5.95;;;3.92;;
1811;SDS011;904;47.814;11.134;2023-02-24T03:59:07;7.43;;;3.90;;
1811;SDS011;904;47.814;11.134;2023-02-24T04:01:45;6.05;;;3.78;;
1811;SDS011;904;47.814;11.134;2023-02-24T04:04:24;5.88;;;3.67;;
1811;SDS011;904;47.814;11.134;2023-02-24T04:06:59;6.53;;;4.75;;
1811;SDS011;904;47.814;11.134;2023-02-24T04:09:36;5.75;;;3.33;;
1811;SDS011;904;47.814;11.134;2023-02-24T04:12:08;6.43;;;4.20;;
1811;SDS011;904;47.814;11.134;2023-02-24T04:14:45;5.72;;;4.00;;
1811;SDS011;904;47.814;11.134;2023-02-24T04:17:16;5.18;;;3.65;;
1811;SDS011;904;47.814;11.134;2023-02-24T04:19:49;6.80;;;4.70;;
1811;SDS011;904;47.814;11.134;2023-02-24T04:22:23;7.53;;;4.55;;
1811;SDS011;904;47.814;11.134;2023-02-24T04:24:52;7.15;;;4.40;;
1811;SDS011;904;47.814;11.134;2023-02-24T04:27:23;10.45;;;5.72;;
1811;SDS011;904;47.814;11.134;2023-02-24T04:29:53;7.25;;;4.50;;
1811;SDS011;904;47.814;11.134;2023-02-24T04:32:25;14.50;;;5.47;;
1811;SDS011;904;47.814;11.134;2023-02-24T04:34:59;8.00;;;5.00;;
1811;SDS011;904;47.814;11.134;2023-02-24T04:37:29;8.65;;;6.60;;
1811;SDS011;904;47.814;11.134;2023-02-24T04:39:58;7.80;;;5.53;;
1811;SDS011;904;47.814;11.134;2023-02-24T04:42:25;10.45;;;5.22;;
1811;SDS011;904;47.814;11.134;2023-02-24T04:44:53;11.05;;;6.00;;
1811;SDS011;904;47.814;11.134;2023-02-24T04:47:22;9.70;;;5.82;;
1811;SDS011;904;47.814;11.134;2023-02-24T04:49:53;10.02;;;5.35;;
1811;SDS011;904;47.814;11.134;2023-02-24T04:52:21;10.45;;;5.45;;
1811;SDS011;904;47.814;11.134;2023-02-24T04:54:50;9.35;;;5.82;;
1811;SDS011;904;47.814;11.134;2023-02-24T04:57:17;6.15;;;4.13;;
1811;SDS011;904;47.814;11.134;2023-02-24T04:59:44;10.07;;;5.35;;
1811;SDS011;904;47.814;11.134;2023-02-24T05:02:11;12.77;;;5.50;;
1811;SDS011;904;47.814;11.134;2023-02-24T05:04:40;10.05;;;5.50;;
1811;SDS011;904;47.814;11.134;2023-02-24T05:07:09;8.65;;;5.40;;
1811;SDS011;904;47.814;11.134;2023-02-24T05:09:40;8.30;;;5.70;;
1811;SDS011;904;47.814;11.134;2023-02-24T05:12:09;9.10;;;5.30;;
1811;SDS011;904;47.814;11.134;2023-02-24T05:14:36;6.70;;;4.68;;
1811;SDS011;904;47.814;11.134;2023-02-24T05:17:03;7.28;;;4.82;;
1811;SDS011;904;47.814;11.134;2023-02-24T05:19:31;11.30;;;4.72;;
1811;SDS011;904;47.814;11.134;2023-02-24T05:22:16;11.60;;;5.75;;
1811;SDS011;904;47.814;11.134;2023-02-24T05:24:43;9.35;;;5.05;;
1811;SDS011;904;47.814;11.134;2023-02-24T05:27:13;6.22;;;4.53;;
1811;SDS011;904;47.814;11.134;2023-02-24T05:29:41;8.57;;;5.68;;
1811;SDS011;904;47.814;11.134;2023-02-24T05:32:09;8.00;;;4.20;;
1811;SDS011;904;47.814;11.134;2023-02-24T05:34:37;10.45;;;4.75;;
1811;SDS011;904;47.814;11.134;2023-02-24T05:37:04;7.25;;;4.30;;
1811;SDS011;904;47.814;11.134;2023-02-24T05:39:34;5.75;;;4.28;;
1811;SDS011;904;47.814;11.134;2023-02-24T05:42:02;9.95;;;4.70;;
1811;SDS011;904;47.814;11.134;2023-02-24T05:44:33;10.30;;;4.65;;
1811;SDS011;904;47.814;11.134;2023-02-24T05:47:01;10.23;;;6.20;;
1811;SDS011;904;47.814;11.134;2023-02-24T05:49:30;6.55;;;3.85;;
1811;SDS011;904;47.814;11.134;2023-02-24T05:51:59;9.18;;;4.50;;
1811;SDS011;904;47.814;11.134;2023-02-24T05:54:32;9.30;;;5.05;;
1811;SDS011;904;47.814;11.134;2023-02-24T05:57:02;10.95;;;5.18;;
1811;SDS011;904;47.814;11.134;2023-02-24T05:59:34;6.82;;;4.40;;
1811;SDS011;904;47.814;11.134;2023-02-24T06:02:02;7.45;;;4.45;;
1811;SDS011;904;47.814;11.134;2023-02-24T06:04:33;7.32;;;3.80;;
1811;SDS011;904;47.814;11.134;2023-02-24T06:07:15;7.82;;;3.95;;
1811;SDS011;904;47.814;11.134;2023-02-24T06:09:44;9.02;;;4.70;;
1811;SDS011;904;47.814;11.134;2023-02-24T06:12:14;6.32;;;4.38;;
1811;SDS011;904;47.814;11.134;2023-02-24T06:14:43;9.15;;;4.03;;
1811;SDS011;904;47.814;11.134;2023-02-24T06:17:10;7.57;;;5.20;;
1811;SDS011;904;47.814;11.134;2023-02-24T06:19:39;7.88;;;4.90;;
1811;SDS011;904;47.814;11.134;2023-02-24T06:22:08;8.57;;;5.97;;
1811;SDS011;904;47.814;11.134;2023-02-24T06:24:38;9.48;;;5.28;;
1811;SDS011;904;47.814;11.134;2023-02-24T06:27:08;11.27;;;6.13;;
1811;SDS011;904;47.814;11.134;2023-02-24T06:29:43;7.15;;;4.88;;
1811;SDS011;904;47.814;11.134;2023-02-24T06:32:11;7.15;;;5.35;;
1811;SDS011;904;47.814;11.134;2023-02-24T06:34:39;11.00;;;4.32;;
1811;SDS011;904;47.814;11.134;2023-02-24T06:37:06;11.85;;;5.35;;
1811;SDS011;904;47.814;11.134;2023-02-24T06:39:36;10.68;;;5.10;;
1811;SDS011;904;47.814;11.134;2023-02-24T06:42:03;6.53;;;5.03;;
1811;SDS011;904;47.814;11.134;2023-02-24T06:44:33;11.27;;;5.55;;
1811;SDS011;904;47.814;11.134;2023-02-24T06:47:04;9.85;;;4.80;;
1811;SDS011;904;47.814;11.134;2023-02-24T06:49:33;12.27;;;5.53;;
1811;SDS011;904;47.814;11.134;2023-02-24T06:52:00;10.50;;;5.75;;
1811;SDS011;904;47.814;11.134;2023-02-24T06:54:28;8.98;;;6.75;;
1811;SDS011;904;47.814;11.134;2023-02-24T06:57:00;8.02;;;5.55;;
1811;SDS011;904;47.814;11.134;2023-02-24T06:59:28;8.13;;;5.88;;
1811;SDS011;904;47.814;11.134;2023-02-24T07:01:56;14.95;;;7.05;;
1811;SDS011;904;47.814;11.134;2023-02-24T07:04:27;12.25;;;8.38;;
1811;SDS011;904;47.814;11.134;2023-02-24T07:06:55;9.57;;;6.38;;
1811;SDS011;904;47.814;11.134;2023-02-24T07:09:27;6.50;;;4.55;;
1811;SDS011;904;47.814;11.134;2023-02-24T07:11:54;6.00;;;4.00;;
1811;SDS011;904;47.814;11.134;2023-02-24T07:14:27;10.43;;;5.22;;
1811;SDS011;904;47.814;11.134;2023-02-24T07:16:55;9.48;;;5.30;;
1811;SDS011;904;47.814;11.134;2023-02-24T07:19:24;7.07;;;4.45;;
1811;SDS011;904;47.814;11.134;2023-02-24T07:21:55;6.97;;;3.80;;
1811;SDS011;904;47.814;11.134;2023-02-24T07:24:26;8.23;;;4.15;;
1811;SDS011;904;47.814;11.134;2023-02-24T07:27:01;5.28;;;3.75;;
1811;SDS011;904;47.814;11.134;2023-02-24T07:29:30;6.32;;;3.63;;
1811;SDS011;904;47.814;11.134;2023-02-24T07:31:58;5.57;;;4.03;;
1811;SDS011;904;47.814;11.134;2023-02-24T07:34:27;7.65;;;4.20;;
1811;SDS011;904;47.814;11.134;2023-02-24T07:36:57;8.35;;;3.75;;
1811;SDS011;904;47.814;11.134;2023-02-24T07:39:30;8.00;;;4.47;;
1811;SDS011;904;47.814;11.134;2023-02-24T07:41:58;5.75;;;4.25;;
1811;SDS011;904;47.814;11.134;2023-02-24T07:44:25;6.68;;;3.78;;
1811;SDS011;904;47.814;11.134;2023-02-24T07:46:53;5.38;;;3.58;;
1811;SDS011;904;47.814;11.134;2023-02-24T07:49:24;5.65;;;3.63;;
1811;SDS011;904;47.814;11.134;2023-02-24T07:51:54;9.27;;;3.90;;
1811;SDS011;904;47.814;11.134;2023-02-24T07:54:23;7.75;;;4.95;;
1811;SDS011;904;47.814;11.134;2023-02-24T07:56:54;6.43;;;4.50;;
1811;SDS011;904;47.814;11.134;2023-02-24T07:59:23;10.15;;;4.75;;
1811;SDS011;904;47.814;11.134;2023-02-24T08:01:52;4.90;;;3.50;;
1811;SDS011;904;47.814;11.134;2023-02-24T08:04:21;6.15;;;3.60;;
1811;SDS011;904;47.814;11.134;2023-02-24T08:06:50;5.28;;;3.80;;
1811;SDS011;904;47.814;11.134;2023-02-24T08:09:23;10.20;;;4.50;;
1811;SDS011;904;47.814;11.134;2023-02-24T08:12:08;10.82;;;3.75;;
1811;SDS011;904;47.814;11.134;2023-02-24T08:14:36;5.75;;;3.75;;
1811;SDS011;904;47.814;11.134;2023-02-24T08:17:08;7.47;;;3.92;;
1811;SDS011;904;47.814;11.134;2023-02-24T08:19:40;5.25;;;3.50;;
1811;SDS011;904;47.814;11.134;2023-02-24T08:22:08;5.57;;;3.75;;
1811;SDS011;904;47.814;11.134;2023-02-24T08:24:46;4.60;;;3.13;;
1811;SDS011;904;47.814;11.134;2023-02-24T08:27:20;8.25;;;4.28;;
1811;SDS011;904;47.814;11.134;2023-02-24T08:29:49;7.15;;;4.88;;
1811;SDS011;904;47.814;11.134;2023-02-24T08:32:27;10.30;;;4.18;;
1811;SDS011;904;47.814;11.134;2023-02-24T08:34:58;9.35;;;5.40;;
1811;SDS011;904;47.814;11.134;2023-02-24T08:37:27;8.55;;;5.20;;
1811;SDS011;904;47.814;11.134;2023-02-24T08:40:06;8.45;;;4.82;;
1811;SDS011;904;47.814;11.134;2023-02-24T08:42:53;8.23;;;5.40;;
1811;SDS011;904;47.814;11.134;2023-02-24T08:45:22;7.10;;;3.90;;
1811;SDS011;904;47.814;11.134;2023-02-24T08:47:50;10.53;;;7.13;;
1811;SDS011;904;47.814;11.134;2023-02-24T08:50:24;17.30;;;8.23;;
1811;SDS011;904;47.814;11.134;2023-02-24T08:52:55;16.93;;;10.20;;
1811;SDS011;904;47.814;11.134;2023-02-24T08:55:27;13.33;;;9.20;;
1811;SDS011;904;47.814;11.134;2023-02-24T08:57:57;9.83;;;7.67;;
1811;SDS011;904;47.814;11.134;2023-02-24T09:00:26;10.00;;;7.27;;
1811;SDS011;904;47.814;11.134;2023-02-24T09:03:13;14.10;;;8.17;;
1811;SDS011;904;47.814;11.134;2023-02-24T09:05:55;14.40;;;7.30;;
1811;SDS011;904;47.814;11.134;2023-02-24T09:08:23;9.20;;;6.70;;
1811;SDS011;904;47.814;11.134;2023-02-24T09:10:58;11.07;;;6.70;;
1811;SDS011;904;47.814;11.134;2023-02-24T09:13:25;9.30;;;6.73;;
1811;SDS011;904;47.814;11.134;2023-02-24T09:15:57;8.77;;;5.63;;
1811;SDS011;904;47.814;11.134;2023-02-24T09:18:26;9.40;;;6.10;;
1811;SDS011;904;47.814;11.134;2023-02-24T09:24:15;12.25;;;6.00;;
1811;SDS011;904;47.814;11.134;2023-02-24T09:26:52;10.50;;;6.40;;
1811;SDS011;904;47.814;11.134;2023-02-24T09:29:22;7.47;;;5.63;;
1811;SDS011;904;47.814;11.134;2023-02-24T09:31:59;10.17;;;6.53;;
1811;SDS011;904;47.814;11.134;2023-02-24T09:34:30;12.47;;;4.97;;
1811;SDS011;904;47.814;11.134;2023-02-24T09:36:57;9.37;;;5.60;;
1811;SDS011;904;47.814;11.134;2023-02-24T09:39:28;10.20;;;4.80;;
1811;SDS011;904;47.814;11.134;2023-02-24T09:42:19;8.97;;;5.63;;
1811;SDS011;904;47.814;11.134;2023-02-24T09:44:58;8.50;;;4.20;;
1811;SDS011;904;47.814;11.134;2023-02-24T09:47:36;6.53;;;3.63;;
1811;SDS011;904;47.814;11.134;2023-02-24T09:50:23;9.23;;;3.50;;
1811;SDS011;904;47.814;11.134;2023-02-24T09:53:10;8.07;;;3.90;;
1811;SDS011;904;47.814;11.134;2023-02-24T09:55:43;10.37;;;4.27;;
1811;SDS011;904;47.814;11.134;2023-02-24T09:58:33;7.87;;;4.00;;
1811;SDS011;904;47.814;11.134;2023-02-24T10:01:12;10.03;;;4.30;;
1811;SDS011;904;47.814;11.134;2023-02-24T10:03:49;7.77;;;4.60;;
1811;SDS011;904;47.814;11.134;2023-02-24T10:06:28;8.77;;;5.10;;
1811;SDS011;904;47.814;11.134;2023-02-24T10:09:02;10.33;;;5.53;;
1811;SDS011;904;47.814;11.134;2023-02-24T10:11:37;6.83;;;4.47;;
1811;SDS011;904;47.814;11.134;2023-02-24T10:14:19;6.23;;;4.50;;
1811;SDS011;904;47.814;11.134;2023-02-24T10:16:50;7.93;;;4.80;;
1811;SDS011;904;47.814;11.134;2023-02-24T10:19:41;6.93;;;4.40;;
1811;SDS011;904;47.814;11.134;2023-02-24T10:22:14;8.57;;;5.23;;
1811;SDS011;904;47.814;11.134;2023-02-24T10:24:53;6.47;;;4.00;;
1811;SDS011;904;47.814;11.134;2023-02-24T10:27:36;11.13;;;4.70;;
1811;SDS011;904;47.814;11.134;2023-02-24T10:30:21;15.13;;;5.00;;
1811;SDS011;904;47.814;11.134;2023-02-24T10:33:11;6.77;;;4.90;;
1811;SDS011;904;47.814;11.134;2023-02-24T10:35:51;9.37;;;5.53;;
1811;SDS011;904;47.814;11.134;2023-02-24T10:38:33;7.87;;;4.50;;
1811;SDS011;904;47.814;11.134;2023-02-24T10:41:01;12.60;;;4.87;;
1811;SDS011;904;47.814;11.134;2023-02-24T10:43:30;7.03;;;5.03;;
1811;SDS011;904;47.814;11.134;2023-02-24T10:46:17;10.83;;;4.70;;
1811;SDS011;904;47.814;11.134;2023-02-24T10:48:50;9.23;;;5.30;;
1811;SDS011;904;47.814;11.134;2023-02-24T10:51:24;7.13;;;4.63;;
1811;SDS011;904;47.814;11.134;2023-02-24T10:54:03;9.10;;;4.80;;
1811;SDS011;904;47.814;11.134;2023-02-24T10:56:46;11.27;;;5.07;;
1811;SDS011;904;47.814;11.134;2023-02-24T10:59:40;7.50;;;4.93;;
1811;SDS011;904;47.814;11.134;2023-02-24T11:02:24;7.30;;;4.20;;
1811;SDS011;904;47.814;11.134;2023-02-24T11:04:57;13.17;;;5.63;;
1811;SDS011;904;47.814;11.134;2023-02-24T11:07:49;9.47;;;4.73;;
1811;SDS011;904;47.814;11.134;2023-02-24T11:10:20;8.93;;;4.50;;
1811;SDS011;904;47.814;11.134;2023-02-24T11:12:56;6.13;;;5.17;;
1811;SDS011;904;47.814;11.134;2023-02-24T11:15:43;5.57;;;3.70;;
1811;SDS011;904;47.814;11.134;2023-02-24T11:18:32;10.90;;;6.53;;
1811;SDS011;904;47.814;11.134;2023-02-24T11:21:00;7.60;;;4.33;;
1811;SDS011;904;47.814;11.134;2023-02-24T11:23:31;7.97;;;4.90;;
1811;SDS011;904;47.814;11.134;2023-02-24T11:26:00;11.63;;;4.90;;
1811;SDS011;904;47.814;11.134;2023-02-24T11:28:54;6.27;;;4.20;;
1811;SDS011;904;47.814;11.134;2023-02-24T11:31:33;8.00;;;4.57;;
1811;SDS011;904;47.814;11.134;2023-02-24T11:34:13;7.07;;;4.57;;
1811;SDS011;904;47.814;11.134;2023-02-24T11:36:49;10.70;;;5.43;;
1811;SDS011;904;47.814;11.134;2023-02-24T11:39:29;12.17;;;5.87;;
1811;SDS011;904;47.814;11.134;2023-02-24T11:42:12;13.30;;;5.83;;
1811;SDS011;904;47.814;11.134;2023-02-24T11:44:45;8.90;;;4.90;;
1811;SDS011;904;47.814;11.134;2023-02-24T11:47:19;6.63;;;4.30;;
1811;SDS011;904;47.814;11.134;2023-02-24T11:49:52;11.00;;;5.20;;
1811;SDS011;904;47.814;11.134;2023-02-24T11:52:26;12.70;;;7.50;;
1811;SDS011;904;47.814;11.134;2023-02-24T11:54:58;13.57;;;6.60;;
1811;SDS011;904;47.814;11.134;2023-02-24T11:57:31;12.47;;;5.50;;
1811;SDS011;904;47.814;11.134;2023-02-24T12:00:05;8.67;;;4.73;;
1811;SDS011;904;47.814;11.134;2023-02-24T12:02:40;11.80;;;7.00;;
1811;SDS011;904;47.814;11.134;2023-02-24T12:05:15;9.87;;;4.53;;
1811;SDS011;904;47.814;11.134;2023-02-24T12:07:45;8.90;;;5.10;;
1811;SDS011;904;47.814;11.134;2023-02-24T12:10:18;9.90;;;5.20;;
1811;SDS011;904;47.814;11.134;2023-02-24T12:12:50;10.70;;;5.67;;
1811;SDS011;904;47.814;11.134;2023-02-24T12:15:26;8.67;;;4.83;;
1811;SDS011;904;47.814;11.134;2023-02-24T12:17:57;10.07;;;5.27;;
1811;SDS011;904;47.814;11.134;2023-02-24T12:20:32;10.00;;;6.50;;
1811;SDS011;904;47.814;11.134;2023-02-24T12:23:08;12.93;;;5.60;;
1811;SDS011;904;47.814;11.134;2023-02-24T12:25:46;8.57;;;5.03;;
1811;SDS011;904;47.814;11.134;2023-02-24T12:28:29;11.37;;;4.70;;
1811;SDS011;904;47.814;11.134;2023-02-24T12:31:09;12.30;;;5.87;;
1811;SDS011;904;47.814;11.134;2023-02-24T12:33:49;9.20;;;6.00;;
1811;SDS011;904;47.814;11.134;2023-02-24T12:36:31;12.40;;;5.27;;
1811;SDS011;904;47.814;11.134;2023-02-24T12:39:11;9.37;;;5.87;;
1811;SDS011;904;47.814;11.134;2023-02-24T12:41:45;10.77;;;6.27;;
1811;SDS011;904;47.814;11.134;2023-02-24T12:44:23;8.00;;;6.10;;
1811;SDS011;904;47.814;11.134;2023-02-24T12:46:59;12.07;;;6.20;;
1811;SDS011;904;47.814;11.134;2023-02-24T12:49:35;9.27;;;5.30;;
1811;SDS011;904;47.814;11.134;2023-02-24T12:52:18;11.80;;;4.90;;
1811;SDS011;904;47.814;11.134;2023-02-24T12:54:54;13.03;;;6.17;;
1811;SDS011;904;47.814;11.134;2023-02-24T12:57:32;9.73;;;5.90;;
1811;SDS011;904;47.814;11.134;2023-02-24T13:00:09;10.83;;;5.00;;
1811;SDS011;904;47.814;11.134;2023-02-24T13:02:43;7.90;;;5.10;;
1811;SDS011;904;47.814;11.134;2023-02-24T13:05:19;15.17;;;6.70;;
1811;SDS011;904;47.814;11.134;2023-02-24T13:11:19;13.40;;;5.20;;
1811;SDS011;904;47.814;11.134;2023-02-24T13:13:54;8.73;;;5.57;;
1811;SDS011;904;47.814;11.134;2023-02-24T13:16:27;10.83;;;5.47;;
1811;SDS011;904;47.814;11.134;2023-02-24T13:19:03;10.63;;;6.20;;
1811;SDS011;904;47.814;11.134;2023-02-24T13:21:31;8.90;;;5.60;;
1811;SDS011;904;47.814;11.134;2023-02-24T13:24:01;7.97;;;5.43;;
1811;SDS011;904;47.814;11.134;2023-02-24T13:26:29;12.37;;;5.47;;
1811;SDS011;904;47.814;11.134;2023-02-24T13:28:57;9.37;;;6.80;;
1811;SDS011;904;47.814;11.134;2023-02-24T13:31:26;11.97;;;6.70;;
1811;SDS011;904;47.814;11.134;2023-02-24T13:34:12;8.97;;;6.00;;
1811;SDS011;904;47.814;11.134;2023-02-24T13:36:47;11.30;;;7.60;;
1811;SDS011;904;47.814;11.134;2023-02-24T13:39:22;17.10;;;6.70;;
1811;SDS011;904;47.814;11.134;2023-02-24T13:42:03;11.47;;;6.70;;
1811;SDS011;904;47.814;11.134;2023-02-24T13:44:32;14.10;;;7.40;;
1811;SDS011;904;47.814;11.134;2023-02-24T13:49:58;11.03;;;6.77;;
1811;SDS011;904;47.814;11.134;2023-02-24T13:52:43;12.97;;;7.37;;
1811;SDS011;904;47.814;11.134;2023-02-24T13:55:27;13.17;;;9.20;;
1811;SDS011;904;47.814;11.134;2023-02-24T14:01:04;10.00;;;5.93;;
1811;SDS011;904;47.814;11.134;2023-02-24T14:03:33;14.43;;;7.40;;
1811;SDS011;904;47.814;11.134;2023-02-24T14:06:00;13.27;;;7.10;;
1811;SDS011;904;47.814;11.134;2023-02-24T14:08:31;12.57;;;6.70;;
1811;SDS011;904;47.814;11.134;2023-02-24T14:11:07;11.53;;;7.33;;
1811;SDS011;904;47.814;11.134;2023-02-24T14:13:37;13.10;;;7.00;;
1811;SDS011;904;47.814;11.134;2023-02-24T14:16:05;12.37;;;8.40;;
1811;SDS011;904;47.814;11.134;2023-02-24T14:18:34;12.03;;;6.70;;
1811;SDS011;904;47.814;11.134;2023-02-24T14:21:01;12.63;;;7.07;;
1811;SDS011;904;47.814;11.134;2023-02-24T14:23:29;12.43;;;6.90;;
1811;SDS011;904;47.814;11.134;2023-02-24T14:25:58;8.90;;;6.63;;
1811;SDS011;904;47.814;11.134;2023-02-24T14:28:28;11.03;;;7.43;;
1811;SDS011;904;47.814;11.134;2023-02-24T14:30:57;10.87;;;7.50;;
1811;SDS011;904;47.814;11.134;2023-02-24T14:33:28;11.07;;;6.00;;
1811;SDS011;904;47.814;11.134;2023-02-24T14:35:56;13.47;;;7.33;;
1811;SDS011;904;47.814;11.134;2023-02-24T14:38:31;15.23;;;8.80;;
1811;SDS011;904;47.814;11.134;2023-02-24T14:40:59;7.57;;;6.17;;
1811;SDS011;904;47.814;11.134;2023-02-24T14:43:28;13.27;;;7.40;;
1811;SDS011;904;47.814;11.134;2023-02-24T14:45:58;13.97;;;6.43;;
1811;SDS011;904;47.814;11.134;2023-02-24T14:48:30;11.10;;;5.83;;
1811;SDS011;904;47.814;11.134;2023-02-24T14:50:58;22.50;;;8.40;;
1811;SDS011;904;47.814;11.134;2023-02-24T14:53:27;13.17;;;6.03;;
1811;SDS011;904;47.814;11.134;2023-02-24T14:55:57;13.80;;;7.50;;
1811;SDS011;904;47.814;11.134;2023-02-24T14:58:29;17.37;;;6.03;;
1811;SDS011;904;47.814;11.134;2023-02-24T15:01:01;16.70;;;6.80;;
1811;SDS011;904;47.814;11.134;2023-02-24T15:03:31;10.80;;;4.50;;
1811;SDS011;904;47.814;11.134;2023-02-24T15:06:04;18.07;;;6.97;;
1811;SDS011;904;47.814;11.134;2023-02-24T15:08:33;10.57;;;5.80;;
1811;SDS011;904;47.814;11.134;2023-02-24T15:11:08;20.90;;;6.17;;
1811;SDS011;904;47.814;11.134;2023-02-24T15:13:45;12.00;;;6.17;;
1811;SDS011;904;47.814;11.134;2023-02-24T15:16:16;19.73;;;5.53;;
1811;SDS011;904;47.814;11.134;2023-02-24T15:18:48;14.73;;;5.50;;
1811;SDS011;904;47.814;11.134;2023-02-24T15:21:20;10.07;;;4.50;;
1811;SDS011;904;47.814;11.134;2023-02-24T15:23:57;12.23;;;4.20;;
1811;SDS011;904;47.814;11.134;2023-02-24T15:26:26;14.63;;;5.20;;
1811;SDS011;904;47.814;11.134;2023-02-24T15:29:00;16.17;;;5.13;;
1811;SDS011;904;47.814;11.134;2023-02-24T15:31:37;18.48;;;5.07;;
1811;SDS011;904;47.814;11.134;2023-02-24T15:34:04;15.95;;;4.78;;
1811;SDS011;904;47.814;11.134;2023-02-24T15:36:35;16.73;;;5.70;;
1811;SDS011;904;47.814;11.134;2023-02-24T15:39:03;12.43;;;4.77;;
1811;SDS011;904;47.814;11.134;2023-02-24T15:41:38;13.13;;;5.30;;
1811;SDS011;904;47.814;11.134;2023-02-24T15:44:20;19.43;;;5.10;;
1811;SDS011;904;47.814;11.134;2023-02-24T15:46:53;16.67;;;4.30;;
1811;SDS011;904;47.814;11.134;2023-02-24T15:49:22;15.03;;;4.33;;
1811;SDS011;904;47.814;11.134;2023-02-24T15:51:49;17.20;;;4.93;;
1811;SDS011;904;47.814;11.134;2023-02-24T15:54:19;12.67;;;4.90;;
1811;SDS011;904;47.814;11.134;2023-02-24T15:56:51;12.80;;;6.20;;
1811;SDS011;904;47.814;11.134;2023-02-24T15:59:18;13.55;;;4.82;;
1811;SDS011;904;47.814;11.134;2023-02-24T16:01:47;12.00;;;5.83;;
1811;SDS011;904;47.814;11.134;2023-02-24T16:04:15;10.53;;;4.63;;
1811;SDS011;904;47.814;11.134;2023-02-24T16:06:43;11.98;;;5.28;;